SPSEC EPKK-EPKK
Flight info
| Callsign | SPSEC |
|---|---|
| Flight time | 0h 8m |
| Altitude | 2000 |
| Route | TRAFFIC CIRCUITS |
| Aircraft | PA24/L-SBDGRY/S |
Departure
| Time | 2026-05-05 15:29 |
|---|---|
| Airport | Kraków John Paul II International Airport (EPKK) |
Arrival
| Time | 2026-05-05 15:38 |
|---|---|
| Airport | Kraków John Paul II International Airport (EPKK) |
| Time | Latitude | Longitude | Altitude | Speed | Heading |
|---|---|---|---|---|---|
| 2026-05-05 15:19 | 50.07688 | 19.80077 | 788 ft | 0 kts | 348° |
| 2026-05-05 15:27 | 50.07690 | 19.80076 | 794 ft | 3 kts | 348° |
| 2026-05-05 15:27 | 50.07720 | 19.80066 | 794 ft | 5 kts | 349° |
| 2026-05-05 15:27 | 50.07755 | 19.80180 | 794 ft | 16 kts | 78° |
| 2026-05-05 15:27 | 50.07773 | 19.80310 | 794 ft | 12 kts | 67° |
| 2026-05-05 15:28 | 50.07862 | 19.80331 | 795 ft | 13 kts | 343° |
| 2026-05-05 15:28 | 50.07998 | 19.80283 | 794 ft | 22 kts | 333° |
| 2026-05-05 15:28 | 50.08011 | 19.80185 | 795 ft | 0 kts | 259° |
| 2026-05-05 15:29 | 50.07976 | 19.79949 | 795 ft | 63 kts | 253° |
| 2026-05-05 15:29 | 50.07864 | 19.79110 | 921 ft | 91 kts | 253° |
| 2026-05-05 15:29 | 50.07736 | 19.78195 | 1235 ft | 81 kts | 253° |
| 2026-05-05 15:29 | 50.07598 | 19.77240 | 1492 ft | 96 kts | 255° |
| 2026-05-05 15:30 | 50.07480 | 19.76267 | 1572 ft | 90 kts | 258° |
| 2026-05-05 15:30 | 50.07559 | 19.75377 | 1613 ft | 91 kts | 311° |
| 2026-05-05 15:30 | 50.08196 | 19.75145 | 1607 ft | 101 kts | 353° |
| 2026-05-05 15:30 | 50.08903 | 19.75115 | 1591 ft | 101 kts | 15° |
| 2026-05-05 15:31 | 50.09275 | 19.75998 | 1549 ft | 106 kts | 85° |
| 2026-05-05 15:31 | 50.09430 | 19.77087 | 1537 ft | 100 kts | 82° |
| 2026-05-05 15:31 | 50.09578 | 19.78168 | 1511 ft | 102 kts | 85° |
| 2026-05-05 15:31 | 50.09688 | 19.79271 | 1498 ft | 104 kts | 82° |
| 2026-05-05 15:32 | 50.09846 | 19.80387 | 1499 ft | 106 kts | 80° |
| 2026-05-05 15:32 | 50.10025 | 19.81487 | 1483 ft | 105 kts | 79° |
| 2026-05-05 15:32 | 50.10299 | 19.82493 | 1534 ft | 97 kts | 37° |
| 2026-05-05 15:32 | 50.10941 | 19.82483 | 1541 ft | 94 kts | 319° |
| 2026-05-05 15:33 | 50.11057 | 19.81553 | 1503 ft | 92 kts | 259° |
| 2026-05-05 15:33 | 50.10985 | 19.80620 | 1580 ft | 83 kts | 258° |
| 2026-05-05 15:33 | 50.10913 | 19.79699 | 1611 ft | 87 kts | 259° |
| 2026-05-05 15:33 | 50.10848 | 19.78753 | 1633 ft | 88 kts | 260° |
| 2026-05-05 15:34 | 50.10932 | 19.77858 | 1665 ft | 84 kts | 304° |
| 2026-05-05 15:34 | 50.11505 | 19.77776 | 1581 ft | 98 kts | 39° |
| 2026-05-05 15:34 | 50.11475 | 19.78707 | 1595 ft | 95 kts | 147° |
| 2026-05-05 15:34 | 50.10845 | 19.79061 | 1568 ft | 96 kts | 168° |
| 2026-05-05 15:35 | 50.10370 | 19.79669 | 1596 ft | 96 kts | 108° |
| 2026-05-05 15:35 | 50.10422 | 19.80748 | 1598 ft | 103 kts | 78° |
| 2026-05-05 15:35 | 50.10603 | 19.81834 | 1615 ft | 104 kts | 80° |
| 2026-05-05 15:35 | 50.10775 | 19.82935 | 1612 ft | 104 kts | 81° |
| 2026-05-05 15:36 | 50.10573 | 19.83924 | 1528 ft | 103 kts | 149° |
| 2026-05-05 15:36 | 50.09923 | 19.84320 | 1478 ft | 98 kts | 168° |
| 2026-05-05 15:36 | 50.09252 | 19.84518 | 1463 ft | 96 kts | 170° |
| 2026-05-05 15:36 | 50.08634 | 19.84426 | 1475 ft | 92 kts | 216° |
| 2026-05-05 15:37 | 50.08461 | 19.83508 | 1364 ft | 98 kts | 259° |
| 2026-05-05 15:37 | 50.08325 | 19.82480 | 1241 ft | 96 kts | 253° |
| 2026-05-05 15:37 | 50.08198 | 19.81479 | 1083 ft | 86 kts | 254° |
| 2026-05-05 15:37 | 50.08074 | 19.80613 | 917 ft | 81 kts | 252° |
| 2026-05-05 15:38 | 50.07963 | 19.79835 | 816 ft | 64 kts | 250° |
| 2026-05-05 15:38 | 50.07884 | 19.79289 | 794 ft | 40 kts | 260° |
| 2026-05-05 15:38 | 50.07794 | 19.78588 | 838 ft | 88 kts | 249° |
| 2026-05-05 15:38 | 50.07675 | 19.77694 | 1133 ft | 86 kts | 248° |
| 2026-05-05 15:39 | 50.07519 | 19.76775 | 1407 ft | 90 kts | 249° |
| 2026-05-05 15:39 | 50.07358 | 19.75781 | 1651 ft | 102 kts | 251° |
| 2026-05-05 15:39 | 50.07656 | 19.74819 | 1730 ft | 119 kts | 340° |
| 2026-05-05 15:39 | 50.08461 | 19.74748 | 1855 ft | 111 kts | 353° |
| 2026-05-05 15:40 | 50.09111 | 19.75193 | 1826 ft | 114 kts | 57° |
| 2026-05-05 15:40 | 50.09320 | 19.76362 | 1807 ft | 109 kts | 79° |
| 2026-05-05 15:40 | 50.09539 | 19.77457 | 1846 ft | 105 kts | 79° |
| 2026-05-05 15:40 | 50.09734 | 19.78560 | 1877 ft | 106 kts | 83° |
| 2026-05-05 15:41 | 50.09928 | 19.79645 | 1868 ft | 101 kts | 80° |
| 2026-05-05 15:41 | 50.10148 | 19.80692 | 1852 ft | 108 kts | 78° |
| 2026-05-05 15:41 | 50.10377 | 19.81847 | 1887 ft | 113 kts | 76° |
| 2026-05-05 15:41 | 50.10606 | 19.83016 | 1865 ft | 113 kts | 77° |
| 2026-05-05 15:42 | 50.10842 | 19.84181 | 1867 ft | 112 kts | 77° |
| 2026-05-05 15:42 | 50.11091 | 19.85336 | 1847 ft | 116 kts | 76° |
| 2026-05-05 15:42 | 50.11369 | 19.86509 | 1859 ft | 116 kts | 74° |
| 2026-05-05 15:42 | 50.11343 | 19.87660 | 1815 ft | 111 kts | 142° |
| 2026-05-05 15:43 | 50.10677 | 19.88120 | 1755 ft | 101 kts | 168° |
| 2026-05-05 15:43 | 50.10026 | 19.88433 | 1736 ft | 96 kts | 169° |
| 2026-05-05 15:43 | 50.09375 | 19.88561 | 1689 ft | 95 kts | 205° |
| 2026-05-05 15:43 | 50.09058 | 19.87682 | 1645 ft | 104 kts | 254° |
| 2026-05-05 15:44 | 50.08930 | 19.86567 | 1566 ft | 99 kts | 251° |
| 2026-05-05 15:44 | 50.08755 | 19.85596 | 1453 ft | 89 kts | 251° |
| 2026-05-05 15:44 | 50.08650 | 19.84642 | 1380 ft | 91 kts | 255° |
| 2026-05-05 15:44 | 50.08526 | 19.83683 | 1335 ft | 90 kts | 245° |
| 2026-05-05 15:45 | 50.08373 | 19.82742 | 1193 ft | 90 kts | 252° |
| 2026-05-05 15:45 | 50.08240 | 19.81791 | 1074 ft | 88 kts | 250° |
| 2026-05-05 15:45 | 50.08123 | 19.80915 | 928 ft | 77 kts | 248° |
| 2026-05-05 15:45 | 50.08003 | 19.80122 | 814 ft | 73 kts | 251° |
| 2026-05-05 15:46 | 50.07903 | 19.79380 | 794 ft | 60 kts | 255° |
| 2026-05-05 15:46 | 50.07792 | 19.78610 | 1000 ft | 75 kts | 247° |
| 2026-05-05 15:46 | 50.07662 | 19.77846 | 1310 ft | 71 kts | 252° |
| 2026-05-05 15:46 | 50.07545 | 19.76954 | 1485 ft | 96 kts | 247° |
| 2026-05-05 15:47 | 50.07346 | 19.75859 | 1655 ft | 115 kts | 250° |
| 2026-05-05 15:47 | 50.07401 | 19.75021 | 1707 ft | 127 kts | 292° |
| 2026-05-05 15:47 | 50.08591 | 19.74449 | 1804 ft | 140 kts | 351° |
| 2026-05-05 15:47 | 50.09461 | 19.74657 | 1776 ft | 128 kts | 33° |
| 2026-05-05 15:48 | 50.09819 | 19.75856 | 1716 ft | 120 kts | 80° |
| 2026-05-05 15:48 | 50.09978 | 19.77111 | 1624 ft | 120 kts | 82° |
| 2026-05-05 15:48 | 50.10136 | 19.78370 | 1580 ft | 114 kts | 78° |
| 2026-05-05 15:48 | 50.10735 | 19.78977 | 1615 ft | 108 kts | 359° |
| 2026-05-05 15:49 | 50.11466 | 19.78853 | 1673 ft | 99 kts | 345° |
| 2026-05-05 15:49 | 50.11806 | 19.78077 | 1745 ft | 97 kts | 258° |
| 2026-05-05 15:49 | 50.11469 | 19.77338 | 1754 ft | 91 kts | 175° |
| 2026-05-05 15:49 | 50.10871 | 19.77719 | 1693 ft | 93 kts | 147° |
| 2026-05-05 15:50 | 50.10848 | 19.78705 | 1645 ft | 107 kts | 75° |
| 2026-05-05 15:50 | 50.11277 | 19.79532 | 1660 ft | 105 kts | 359° |
| 2026-05-05 15:50 | 50.11938 | 19.79180 | 1665 ft | 99 kts | 296° |
| 2026-05-05 15:50 | 50.11953 | 19.78265 | 1758 ft | 78 kts | 238° |
| 2026-05-05 15:51 | 50.11492 | 19.77953 | 1743 ft | 81 kts | 181° |
| 2026-05-05 15:51 | 50.10931 | 19.78019 | 1738 ft | 78 kts | 168° |
| 2026-05-05 15:51 | 50.10762 | 19.78744 | 1753 ft | 88 kts | 81° |
| 2026-05-05 15:51 | 50.11126 | 19.79477 | 1798 ft | 88 kts | 6° |
| 2026-05-05 15:52 | 50.11719 | 19.79284 | 1872 ft | 85 kts | 303° |
| 2026-05-05 15:52 | 50.11746 | 19.78378 | 1811 ft | 85 kts | 256° |
| 2026-05-05 15:52 | 50.11358 | 19.77842 | 1774 ft | 87 kts | 181° |
| 2026-05-05 15:52 | 50.10799 | 19.78095 | 1719 ft | 92 kts | 126° |
| 2026-05-05 15:53 | 50.10878 | 19.79099 | 1759 ft | 97 kts | 66° |
| 2026-05-05 15:53 | 50.11500 | 19.79486 | 1720 ft | 106 kts | 355° |
| 2026-05-05 15:53 | 50.12087 | 19.79100 | 1868 ft | 92 kts | 282° |
| 2026-05-05 15:53 | 50.12103 | 19.78128 | 1868 ft | 87 kts | 248° |
| 2026-05-05 15:54 | 50.11641 | 19.77781 | 1855 ft | 89 kts | 169° |
| 2026-05-05 15:54 | 50.11033 | 19.78071 | 1809 ft | 91 kts | 167° |
| 2026-05-05 15:54 | 50.10688 | 19.78808 | 1769 ft | 98 kts | 97° |
| 2026-05-05 15:54 | 50.10874 | 19.79935 | 1690 ft | 116 kts | 78° |
| 2026-05-05 15:55 | 50.11452 | 19.80525 | 1692 ft | 107 kts | 343° |
| 2026-05-05 15:55 | 50.12018 | 19.80067 | 1862 ft | 85 kts | 288° |
| 2026-05-05 15:55 | 50.12076 | 19.79186 | 1871 ft | 81 kts | 257° |
| 2026-05-05 15:55 | 50.11983 | 19.78291 | 1888 ft | 85 kts | 232° |
| 2026-05-05 15:56 | 50.11457 | 19.77990 | 1832 ft | 84 kts | 184° |
| 2026-05-05 15:56 | 50.10878 | 19.78190 | 1792 ft | 88 kts | 147° |
| 2026-05-05 15:56 | 50.10698 | 19.79175 | 1721 ft | 102 kts | 97° |
| 2026-05-05 15:56 | 50.10875 | 19.80255 | 1847 ft | 100 kts | 59° |
| 2026-05-05 15:57 | 50.11467 | 19.80636 | 1918 ft | 90 kts | 3° |
| 2026-05-05 15:57 | 50.12091 | 19.80746 | 1968 ft | 91 kts | 0° |
| 2026-05-05 15:57 | 50.12700 | 19.80705 | 2017 ft | 86 kts | 323° |
| 2026-05-05 15:57 | 50.13009 | 19.80000 | 2013 ft | 80 kts | 274° |
| 2026-05-05 15:58 | 50.12999 | 19.79152 | 1973 ft | 80 kts | 255° |
| 2026-05-05 15:58 | 50.12911 | 19.78268 | 1942 ft | 85 kts | 252° |
| 2026-05-05 15:58 | 50.12469 | 19.77870 | 1927 ft | 88 kts | 183° |
| 2026-05-05 15:58 | 50.11871 | 19.77926 | 1953 ft | 83 kts | 177° |
| 2026-05-05 15:59 | 50.11297 | 19.78033 | 1934 ft | 83 kts | 172° |
| 2026-05-05 15:59 | 50.10953 | 19.78714 | 1880 ft | 91 kts | 92° |
| 2026-05-05 15:59 | 50.11148 | 19.79680 | 1913 ft | 95 kts | 74° |
| 2026-05-05 15:59 | 50.11525 | 19.80573 | 1922 ft | 102 kts | 33° |
| 2026-05-05 16:00 | 50.12182 | 19.80565 | 1921 ft | 99 kts | 320° |
| 2026-05-05 16:00 | 50.12412 | 19.79679 | 1909 ft | 89 kts | 258° |
| 2026-05-05 16:00 | 50.12347 | 19.78740 | 1917 ft | 84 kts | 257° |
| 2026-05-05 16:00 | 50.11999 | 19.78059 | 1874 ft | 91 kts | 188° |
| 2026-05-05 16:01 | 50.11481 | 19.78502 | 1809 ft | 97 kts | 120° |
| 2026-05-05 16:01 | 50.11458 | 19.79586 | 1808 ft | 107 kts | 74° |
| 2026-05-05 16:01 | 50.12061 | 19.79863 | 1909 ft | 91 kts | 311° |
| 2026-05-05 16:01 | 50.12223 | 19.79026 | 1917 ft | 78 kts | 255° |
| 2026-05-05 16:02 | 50.12119 | 19.78200 | 1949 ft | 80 kts | 240° |
| 2026-05-05 16:02 | 50.11641 | 19.77872 | 1886 ft | 86 kts | 179° |
| 2026-05-05 16:02 | 50.11047 | 19.77942 | 1877 ft | 87 kts | 171° |
| 2026-05-05 16:02 | 50.10763 | 19.78647 | 1931 ft | 87 kts | 86° |
| 2026-05-05 16:03 | 50.11157 | 19.79281 | 1937 ft | 91 kts | 7° |
| 2026-05-05 16:03 | 50.11786 | 19.79136 | 1951 ft | 91 kts | 344° |
| 2026-05-05 16:03 | 50.12156 | 19.78498 | 1993 ft | 79 kts | 257° |
| 2026-05-05 16:03 | 50.12014 | 19.77742 | 2010 ft | 71 kts | 205° |
| 2026-05-05 16:04 | 50.11437 | 19.77742 | 1878 ft | 91 kts | 170° |
| 2026-05-05 16:04 | 50.10906 | 19.78209 | 1876 ft | 92 kts | 122° |
| 2026-05-05 16:04 | 50.11006 | 19.79072 | 1858 ft | 93 kts | 26° |
| 2026-05-05 16:04 | 50.11368 | 19.78577 | 1844 ft | 75 kts | 233° |
| 2026-05-05 16:05 | 50.10886 | 19.78468 | 1739 ft | 80 kts | 166° |
| 2026-05-05 16:05 | 50.10341 | 19.78809 | 1643 ft | 93 kts | 166° |
| 2026-05-05 16:05 | 50.09882 | 19.79417 | 1563 ft | 96 kts | 109° |
| 2026-05-05 16:05 | 50.09947 | 19.80517 | 1537 ft | 109 kts | 85° |
| 2026-05-05 16:06 | 50.10065 | 19.81687 | 1572 ft | 107 kts | 88° |
| 2026-05-05 16:06 | 50.10219 | 19.82789 | 1644 ft | 104 kts | 84° |
| 2026-05-05 16:06 | 50.10383 | 19.83907 | 1636 ft | 110 kts | 83° |
| 2026-05-05 16:06 | 50.10538 | 19.85083 | 1672 ft | 110 kts | 83° |
| 2026-05-05 16:07 | 50.10576 | 19.86222 | 1697 ft | 106 kts | 130° |
| 2026-05-05 16:07 | 50.09945 | 19.86587 | 1654 ft | 96 kts | 176° |
| 2026-05-05 16:07 | 50.09314 | 19.86752 | 1648 ft | 89 kts | 172° |
| 2026-05-05 16:08 | 50.08807 | 19.85631 | 1666 ft | 90 kts | 249° |
| 2026-05-05 16:08 | 50.08677 | 19.84657 | 1548 ft | 91 kts | 246° |
| 2026-05-05 16:08 | 50.08519 | 19.83719 | 1366 ft | 89 kts | 250° |
| 2026-05-05 16:08 | 50.08378 | 19.82791 | 1193 ft | 83 kts | 250° |
| 2026-05-05 16:09 | 50.08256 | 19.82007 | 1093 ft | 69 kts | 258° |
| 2026-05-05 16:09 | 50.08166 | 19.81302 | 1001 ft | 67 kts | 259° |
| 2026-05-05 16:09 | 50.08070 | 19.80586 | 883 ft | 69 kts | 255° |
| 2026-05-05 16:09 | 50.07971 | 19.79898 | 800 ft | 57 kts | 257° |
| 2026-05-05 16:10 | 50.07892 | 19.79367 | 797 ft | 70 kts | 252° |
| 2026-05-05 16:10 | 50.07762 | 19.78606 | 1080 ft | 69 kts | 251° |
| 2026-05-05 16:10 | 50.07595 | 19.77889 | 1381 ft | 71 kts | 215° |
| 2026-05-05 16:10 | 50.07042 | 19.78070 | 1503 ft | 106 kts | 167° |
| 2026-05-05 16:11 | 50.06236 | 19.78444 | 1491 ft | 127 kts | 165° |
| 2026-05-05 16:11 | 50.06188 | 19.81654 | 1480 ft | 118 kts | 76° |
| 2026-05-05 16:12 | 50.06402 | 19.82859 | 1464 ft | 116 kts | 79° |
| 2026-05-05 16:12 | 50.07148 | 19.84922 | 1456 ft | 121 kts | 6° |
| 2026-05-05 16:13 | 50.08464 | 19.83154 | 1371 ft | 88 kts | 251° |
| 2026-05-05 16:13 | 50.08320 | 19.82356 | 1186 ft | 67 kts | 255° |
| 2026-05-05 16:13 | 50.08223 | 19.81702 | 1087 ft | 62 kts | 255° |
| 2026-05-05 16:14 | 50.08032 | 19.80330 | 901 ft | 63 kts | 255° |
| 2026-05-05 16:14 | 50.07873 | 19.79205 | 795 ft | 58 kts | 257° |
| 2026-05-05 16:15 | 50.07649 | 19.77699 | 1308 ft | 78 kts | 257° |
| 2026-05-05 16:15 | 50.07118 | 19.76485 | 1866 ft | 103 kts | 163° |
| 2026-05-05 16:16 | 50.05944 | 19.77944 | 2095 ft | 135 kts | 91° |
| 2026-05-05 16:16 | 50.06638 | 19.80782 | 1886 ft | 132 kts | 78° |
| 2026-05-05 16:17 | 50.07113 | 19.83409 | 1787 ft | 121 kts | 77° |
| 2026-05-05 16:17 | 50.07372 | 19.84657 | 1711 ft | 124 kts | 78° |
| 2026-05-05 16:18 | 50.06750 | 19.85623 | 1929 ft | 105 kts | 255° |
| 2026-05-05 16:18 | 50.07310 | 19.84959 | 1686 ft | 129 kts | 19° |
| 2026-05-05 16:18 | 50.06931 | 19.86444 | 1585 ft | 102 kts | 241° |
| 2026-05-05 16:19 | 50.07370 | 19.85669 | 1386 ft | 116 kts | 341° |
| 2026-05-05 16:19 | 50.08157 | 19.85489 | 1407 ft | 112 kts | 343° |
| 2026-05-05 16:19 | 50.08597 | 19.84122 | 1377 ft | 70 kts | 253° |
| 2026-05-05 16:20 | 50.08262 | 19.82927 | 1316 ft | 58 kts | 191° |
| 2026-05-05 16:20 | 50.08100 | 19.83960 | 1403 ft | 94 kts | 9° |
| 2026-05-05 16:21 | 50.08347 | 19.82495 | 1230 ft | 82 kts | 250° |
| 2026-05-05 16:22 | 50.08050 | 19.80464 | 884 ft | 57 kts | 254° |
| 2026-05-05 16:22 | 50.07889 | 19.79318 | 794 ft | 36 kts | 257° |
| 2026-05-05 16:23 | 50.07708 | 19.78095 | 1052 ft | 73 kts | 255° |
| 2026-05-05 16:23 | 50.07591 | 19.77280 | 1363 ft | 85 kts | 260° |
| 2026-05-05 16:23 | 50.08238 | 19.75869 | 1829 ft | 115 kts | 347° |
| 2026-05-05 16:24 | 50.09010 | 19.75965 | 1765 ft | 119 kts | 40° |
| 2026-05-05 16:24 | 50.09233 | 19.77158 | 1654 ft | 115 kts | 81° |
| 2026-05-05 16:24 | 50.09586 | 19.79557 | 1648 ft | 109 kts | 75° |
| 2026-05-05 16:25 | 50.10153 | 19.80186 | 1739 ft | 101 kts | 359° |
| 2026-05-05 16:25 | 50.10590 | 19.78738 | 1852 ft | 76 kts | 243° |
| 2026-05-05 16:25 | 50.10121 | 19.78482 | 1855 ft | 86 kts | 170° |
| 2026-05-05 16:26 | 50.10089 | 19.79642 | 1752 ft | 100 kts | 347° |
| 2026-05-05 16:26 | 50.09625 | 19.78992 | 1698 ft | 88 kts | 160° |
| 2026-05-05 16:27 | 50.09414 | 19.79761 | 1680 ft | 95 kts | 81° |
| 2026-05-05 16:27 | 50.09660 | 19.80899 | 1671 ft | 116 kts | 77° |
| 2026-05-05 16:27 | 50.09910 | 19.82107 | 1669 ft | 117 kts | 81° |
| 2026-05-05 16:27 | 50.09974 | 19.83291 | 1705 ft | 111 kts | 129° |
| 2026-05-05 16:28 | 50.09327 | 19.83996 | 1582 ft | 110 kts | 160° |
| 2026-05-05 16:28 | 50.08645 | 19.84184 | 1624 ft | 92 kts | 200° |
| 2026-05-05 16:28 | 50.08441 | 19.83254 | 1517 ft | 99 kts | 258° |
| 2026-05-05 16:28 | 50.08336 | 19.82237 | 1363 ft | 87 kts | 245° |
| 2026-05-05 16:29 | 50.08172 | 19.81368 | 1121 ft | 81 kts | 256° |
| 2026-05-05 16:29 | 50.08056 | 19.80470 | 946 ft | 80 kts | 258° |
| 2026-05-05 16:29 | 50.07949 | 19.79726 | 809 ft | 63 kts | 256° |
| 2026-05-05 16:29 | 50.07872 | 19.79159 | 795 ft | 57 kts | 254° |
| 2026-05-05 16:30 | 50.07756 | 19.78392 | 1008 ft | 69 kts | 256° |
| 2026-05-05 16:30 | 50.07399 | 19.78032 | 1278 ft | 89 kts | 162° |
| 2026-05-05 16:30 | 50.06764 | 19.78402 | 1552 ft | 99 kts | 164° |
| 2026-05-05 16:30 | 50.06429 | 19.79304 | 1702 ft | 120 kts | 86° |
| 2026-05-05 16:31 | 50.06729 | 19.80621 | 1775 ft | 126 kts | 80° |
| 2026-05-05 16:31 | 50.06975 | 19.81862 | 1826 ft | 117 kts | 79° |
| 2026-05-05 16:31 | 50.06661 | 19.82752 | 1867 ft | 94 kts | 171° |
| 2026-05-05 16:31 | 50.06092 | 19.82830 | 1911 ft | 73 kts | 214° |
| 2026-05-05 16:32 | 50.05927 | 19.82424 | 1817 ft | 69 kts | 248° |
| 2026-05-05 16:32 | 50.05842 | 19.81618 | 1595 ft | 75 kts | 255° |
| 2026-05-05 16:32 | 50.05828 | 19.80860 | 1391 ft | 61 kts | 261° |
| 2026-05-05 16:32 | 50.05780 | 19.80145 | 1121 ft | 64 kts | 257° |
| 2026-05-05 16:33 | 50.05709 | 19.79354 | 1160 ft | 85 kts | 262° |
| 2026-05-05 16:33 | 50.05541 | 19.78469 | 1536 ft | 89 kts | 212° |
| 2026-05-05 16:33 | 50.04923 | 19.78293 | 1743 ft | 89 kts | 180° |
| 2026-05-05 16:33 | 50.04507 | 19.78899 | 1716 ft | 93 kts | 93° |
| 2026-05-05 16:34 | 50.04975 | 19.79612 | 1666 ft | 104 kts | 359° |
| 2026-05-05 16:34 | 50.05347 | 19.78885 | 1650 ft | 89 kts | 250° |
| 2026-05-05 16:34 | 50.04988 | 19.78712 | 1827 ft | 66 kts | 141° |
| 2026-05-05 16:34 | 50.05012 | 19.79325 | 1893 ft | 68 kts | 29° |
| 2026-05-05 16:35 | 50.05473 | 19.78841 | 1820 ft | 83 kts | 270° |
| 2026-05-05 16:35 | 50.05203 | 19.78357 | 2070 ft | 71 kts | 191° |
| 2026-05-05 16:35 | 50.04742 | 19.78701 | 2104 ft | 98 kts | 121° |
| 2026-05-05 16:35 | 50.04898 | 19.79844 | 2107 ft | 126 kts | 40° |
| 2026-05-05 16:36 | 50.05533 | 19.79268 | 2100 ft | 118 kts | 269° |
| 2026-05-05 16:36 | 50.05464 | 19.78129 | 2186 ft | 100 kts | 214° |
| 2026-05-05 16:36 | 50.04883 | 19.78428 | 2076 ft | 119 kts | 120° |
| 2026-05-05 16:36 | 50.04892 | 19.79673 | 2190 ft | 117 kts | 70° |
| 2026-05-05 16:37 | 50.05482 | 19.79557 | 1666 ft | 132 kts | 285° |
| 2026-05-05 16:37 | 50.05233 | 19.78626 | 1826 ft | 100 kts | 189° |
| 2026-05-05 16:37 | 50.04741 | 19.79146 | 1941 ft | 98 kts | 110° |
| 2026-05-05 16:37 | 50.05169 | 19.79856 | 1811 ft | 113 kts | 335° |
| 2026-05-05 16:38 | 50.05378 | 19.78880 | 1748 ft | 99 kts | 212° |
| 2026-05-05 16:38 | 50.05112 | 19.79492 | 1675 ft | 112 kts | 58° |
| 2026-05-05 16:38 | 50.05853 | 19.79862 | 1496 ft | 116 kts | 12° |
| 2026-05-05 16:38 | 50.06413 | 19.80751 | 1420 ft | 121 kts | 69° |
| 2026-05-05 16:39 | 50.06676 | 19.81918 | 1441 ft | 112 kts | 77° |
| 2026-05-05 16:39 | 50.06404 | 19.82855 | 1547 ft | 98 kts | 171° |
| 2026-05-05 16:39 | 50.06006 | 19.82381 | 1654 ft | 84 kts | 275° |
| 2026-05-05 16:39 | 50.06546 | 19.82133 | 1598 ft | 110 kts | 33° |
| 2026-05-05 16:40 | 50.06523 | 19.83111 | 1629 ft | 95 kts | 160° |
| 2026-05-05 16:40 | 50.06363 | 19.82647 | 1668 ft | 95 kts | 336° |
| 2026-05-05 16:40 | 50.07062 | 19.82883 | 1596 ft | 113 kts | 41° |
| 2026-05-05 16:40 | 50.07748 | 19.83368 | 1496 ft | 118 kts | 348° |
| 2026-05-05 16:41 | 50.08466 | 19.83047 | 1462 ft | 95 kts | 338° |
| 2026-05-05 16:41 | 50.08825 | 19.82325 | 1852 ft | 86 kts | 264° |
| 2026-05-05 16:41 | 50.08791 | 19.81308 | 1988 ft | 102 kts | 257° |
| 2026-05-05 16:41 | 50.08789 | 19.80272 | 2044 ft | 93 kts | 268° |
| 2026-05-05 16:42 | 50.09125 | 19.79419 | 2020 ft | 100 kts | 310° |
| 2026-05-05 16:42 | 50.09755 | 19.78860 | 1961 ft | 107 kts | 339° |
| 2026-05-05 16:42 | 50.10537 | 19.78601 | 1889 ft | 116 kts | 348° |
| 2026-05-05 16:42 | 50.11328 | 19.78481 | 1911 ft | 114 kts | 347° |
| 2026-05-05 16:43 | 50.11943 | 19.78013 | 1987 ft | 98 kts | 272° |
| 2026-05-05 16:43 | 50.11521 | 19.77529 | 1985 ft | 86 kts | 167° |
| 2026-05-05 16:43 | 50.10936 | 19.77941 | 1954 ft | 93 kts | 165° |
| 2026-05-05 16:43 | 50.10631 | 19.78713 | 1961 ft | 99 kts | 85° |
| 2026-05-05 16:44 | 50.11084 | 19.79452 | 1917 ft | 108 kts | 8° |
| 2026-05-05 16:44 | 50.11639 | 19.78977 | 1972 ft | 94 kts | 271° |
| 2026-05-05 16:44 | 50.11484 | 19.78050 | 1943 ft | 86 kts | 221° |
| 2026-05-05 16:44 | 50.10907 | 19.77916 | 1896 ft | 89 kts | 158° |
| 2026-05-05 16:45 | 50.10725 | 19.78869 | 1860 ft | 111 kts | 97° |
| 2026-05-05 16:45 | 50.11173 | 19.79615 | 1774 ft | 110 kts | 346° |
| 2026-05-05 16:45 | 50.11451 | 19.78715 | 1790 ft | 89 kts | 256° |
| 2026-05-05 16:45 | 50.11252 | 19.77883 | 1815 ft | 82 kts | 203° |
| 2026-05-05 16:46 | 50.10788 | 19.78227 | 1826 ft | 94 kts | 109° |
| 2026-05-05 16:46 | 50.10969 | 19.79269 | 1804 ft | 107 kts | 40° |
| 2026-05-05 16:46 | 50.11520 | 19.78939 | 1754 ft | 100 kts | 266° |
| 2026-05-05 16:46 | 50.11378 | 19.77997 | 1757 ft | 82 kts | 217° |
| 2026-05-05 16:47 | 50.10774 | 19.78000 | 1729 ft | 100 kts | 168° |
| 2026-05-05 16:47 | 50.10138 | 19.78380 | 1714 ft | 97 kts | 167° |
| 2026-05-05 16:47 | 50.09571 | 19.78870 | 1650 ft | 100 kts | 131° |
| 2026-05-05 16:47 | 50.09486 | 19.80004 | 1619 ft | 117 kts | 81° |
| 2026-05-05 16:48 | 50.09726 | 19.81231 | 1643 ft | 117 kts | 84° |
| 2026-05-05 16:48 | 50.09871 | 19.82424 | 1608 ft | 112 kts | 88° |
| 2026-05-05 16:48 | 50.10036 | 19.83637 | 1569 ft | 114 kts | 84° |
| 2026-05-05 16:48 | 50.10175 | 19.84831 | 1562 ft | 110 kts | 87° |
| 2026-05-05 16:49 | 50.09945 | 19.85827 | 1591 ft | 106 kts | 164° |
| 2026-05-05 16:49 | 50.09235 | 19.85929 | 1601 ft | 98 kts | 177° |
| 2026-05-05 16:49 | 50.08717 | 19.85607 | 1605 ft | 92 kts | 260° |
| 2026-05-05 16:49 | 50.08663 | 19.84527 | 1522 ft | 102 kts | 253° |
| 2026-05-05 16:50 | 50.08482 | 19.83412 | 1411 ft | 114 kts | 250° |
| 2026-05-05 16:50 | 50.08339 | 19.82300 | 1286 ft | 92 kts | 245° |
| 2026-05-05 16:50 | 50.08196 | 19.81466 | 1043 ft | 69 kts | 253° |
| 2026-05-05 16:50 | 50.08103 | 19.80775 | 933 ft | 58 kts | 249° |
| 2026-05-05 16:51 | 50.08009 | 19.80167 | 855 ft | 59 kts | 246° |
| 2026-05-05 16:51 | 50.07933 | 19.79603 | 796 ft | 44 kts | 244° |
| 2026-05-05 16:51 | 50.07880 | 19.79257 | 795 ft | 25 kts | 260° |
| 2026-05-05 16:51 | 50.07823 | 19.79070 | 795 ft | 13 kts | 186° |
| 2026-05-05 16:52 | 50.07754 | 19.79086 | 795 ft | 0 kts | 166° |
| 2026-05-05 16:53 | 50.07750 | 19.79087 | 795 ft | 7 kts | 171° |
| 2026-05-05 16:53 | 50.07665 | 19.79113 | 794 ft | 15 kts | 168° |
| 2026-05-05 16:53 | 50.07627 | 19.79259 | 794 ft | 29 kts | 78° |
| 2026-05-05 16:54 | 50.07671 | 19.79584 | 794 ft | 25 kts | 79° |
| 2026-05-05 16:54 | 50.07703 | 19.79802 | 794 ft | 18 kts | 79° |
| 2026-05-05 16:54 | 50.07656 | 19.79885 | 794 ft | 12 kts | 166° |
| 2026-05-05 16:54 | 50.07613 | 19.79993 | 794 ft | 23 kts | 80° |
| 2026-05-05 16:55 | 50.07658 | 19.80088 | 794 ft | 12 kts | 348° |
| 2026-05-05 16:55 | 50.07687 | 19.80077 | 794 ft | 0 kts | 349° |